Terminal Aerodrome Forecast
Issued by NWS

Home | Current Version | Previous Version | Graphics & Text | Print | Product List | Glossary On
Versions: 1 2 3 4 5 6 7 8 9 10 11 12 13 14 15 16 17 18 19 20 21 22 23 24
894
FTUS43 KBIS 220521
TAFJMS
TAF
KJMS 220521Z 2206/2306 00000KT P6SM FEW060 FEW250
     FM221200 32006KT P6SM SCT060 BKN150
     FM221900 34016G24KT P6SM VCSH SCT045 BKN070
     FM230000 35016KT P6SM SCT035 OVC050
     FM230300 33009KT P6SM SCT030 OVC050=

USA.gov is the U.S. government's official web portal to all federal, state and local government web resources and services.